createdAt,value
2019-03-20T00:01:02.374Z,90.600586
2019-03-20T00:06:25.075Z,89.935303
2019-03-20T00:11:48.455Z,89.868164
2019-03-20T00:17:11.081Z,90.911865
2019-03-20T00:22:34.600Z,89.868164
2019-03-20T00:27:58.369Z,90.808105
2019-03-20T00:33:21.013Z,90.185547
2019-03-20T00:38:43.695Z,90.081787
2019-03-20T00:44:06.483Z,90.435791
2019-03-20T00:49:29.269Z,90.393066
2019-03-20T00:54:51.973Z,90.643311
2019-03-20T01:00:14.614Z,90.118408
2019-03-20T01:05:37.407Z,90.95459
2019-03-20T01:11:00.064Z,90.539551
2019-03-20T01:16:22.711Z,91.119385
2019-03-20T01:21:45.349Z,90.496826
2019-03-20T01:27:08.065Z,91.223145
2019-03-20T01:32:30.779Z,92.102051
2019-03-20T01:37:53.400Z,91.534424
2019-03-20T01:43:16.107Z,91.784668
2019-03-20T01:48:38.848Z,92.102051
2019-03-20T01:54:03.012Z,93.182373
2019-03-20T01:59:25.717Z,93.811035
2019-03-20T02:04:48.586Z,93.811035
2019-03-20T02:10:11.987Z,94.122314
2019-03-20T02:15:39.070Z,93.914795
2019-03-20T02:20:57.868Z,94.104004
2019-03-20T02:26:20.554Z,96.044922
2019-03-20T02:31:43.234Z,95.880127
2019-03-20T02:37:05.875Z,98.022461
2019-03-20T02:42:28.566Z,95.41626
2019-03-20T02:47:51.176Z,96.087646
2019-03-20T02:53:13.982Z,95.458984
2019-03-20T02:58:36.704Z,95.562744
2019-03-20T03:03:59.364Z,95.19043
2019-03-20T03:09:22.086Z,97.009277
2019-03-20T03:14:44.715Z,97.741699
2019-03-20T03:20:07.399Z,97.906494
2019-03-20T03:25:30.173Z,97.589111
2019-03-20T03:30:52.941Z,97.442627
2019-03-20T03:36:20.871Z,96.606445
2019-03-20T03:41:38.347Z,96.862793
2019-03-20T03:47:01.024Z,96.490479
2019-03-20T03:52:23.674Z,97.589111
2019-03-20T03:57:46.332Z,97.320557
2019-03-20T04:03:08.980Z,98.156738
2019-03-20T04:08:31.748Z,98.632812
2019-03-20T04:13:54.478Z,97.589111
2019-03-20T04:19:18.248Z,97.589111
2019-03-20T04:24:41.018Z,98.114014
2019-03-20T04:30:04.290Z,97.906494
2019-03-20T04:35:27.154Z,98.114014
2019-03-20T04:40:50.037Z,98.052979
2019-03-20T04:46:12.871Z,98.370361
2019-03-20T04:51:35.639Z,98.577881
2019-03-20T04:56:58.439Z,98.99292
2019-03-20T05:02:21.170Z,98.99292
2019-03-20T05:07:43.787Z,99.041748
2019-03-20T05:13:06.436Z,99.414062
2019-03-20T05:18:29.220Z,99.993896
2019-03-20T05:23:52.035Z,99.005127
2019-03-20T05:29:14.716Z,98.547363
2019-03-20T05:34:38.369Z,98.22998
2019-03-20T05:40:01.049Z,98.126221
2019-03-20T05:45:23.715Z,98.022461
2019-03-20T05:50:46.989Z,97.918701
2019-03-20T05:56:09.727Z,98.175049
2019-03-20T06:01:32.411Z,98.175049
2019-03-20T06:06:55.120Z,98.651123
2019-03-20T06:12:17.825Z,98.083496
2019-03-20T06:17:40.444Z,97.619629
2019-03-20T06:23:03.054Z,96.746826
2019-03-20T06:28:26.775Z,94.989014
2019-03-20T06:33:49.404Z,93.389893
2019-03-20T06:39:11.998Z,92.86499
2019-03-20T06:44:34.717Z,92.199707
2019-03-20T06:49:57.367Z,91.05835
2019-03-20T06:55:20.004Z,90.911865
2019-03-20T07:00:42.704Z,90.661621
2019-03-20T07:06:05.327Z,89.16626
2019-03-20T07:11:28.045Z,86.907959
2019-03-20T07:16:50.726Z,87.451172
2019-03-20T07:22:13.408Z,86.578369
2019-03-20T07:27:36.245Z,83.087158
2019-03-20T07:32:59.037Z,80.529785
2019-03-20T07:38:21.815Z,80.700684
2019-03-20T07:43:44.516Z,79.974365
2019-03-20T07:49:07.521Z,80.493164
2019-03-20T07:54:30.136Z,77.593994
2019-03-20T07:59:52.790Z,76.2146
2019-03-20T08:05:15.562Z,76.629639
2019-03-20T08:10:39.207Z,78.485107
2019-03-20T08:16:03.885Z,78.210449
2019-03-20T08:21:24.575Z,79.144287
2019-03-20T08:26:47.588Z,78.625488
2019-03-20T08:32:10.615Z,80.0354
2019-03-20T08:37:33.258Z,78.796387
2019-03-20T08:42:55.931Z,78.759766
2019-03-20T08:48:18.637Z,79.034424
2019-03-20T08:53:41.256Z,78.515625
2019-03-20T08:59:03.995Z,78.479004
2019-03-20T09:04:26.708Z,77.929688
2019-03-20T09:09:50.834Z,78.302002
2019-03-20T09:15:11.941Z,77.55127
2019-03-20T09:20:34.601Z,76.550293
2019-03-20T09:25:58.298Z,74.871826
2019-03-20T09:31:21.671Z,77.130127
2019-03-20T09:36:44.333Z,75.354004
2019-03-20T09:42:06.951Z,76.306152
2019-03-20T09:47:29.714Z,74.21875
2019-03-20T09:52:52.899Z,71.31958
2019-03-20T09:58:15.642Z,70.257568
2019-03-20T10:03:39.203Z,70.806885
2019-03-20T10:09:02.098Z,69.207764
2019-03-20T10:14:24.452Z,68.798828
2019-03-20T10:19:47.093Z,69.171143
2019-03-20T10:25:09.775Z,71.356201
2019-03-20T10:30:32.368Z,71.014404
2019-03-20T10:35:55.082Z,69.616699
2019-03-20T10:41:17.733Z,70.159912
2019-03-20T10:46:40.452Z,71.661377
2019-03-20T10:52:03.299Z,72.821045
2019-03-20T10:57:25.903Z,73.846436
2019-03-20T11:02:48.581Z,74.11499
2019-03-20T11:08:12.988Z,73.162842
2019-03-20T11:13:33.969Z,74.11499
2019-03-20T11:18:56.698Z,72.479248
2019-03-20T11:24:19.460Z,72.174072
2019-03-20T11:29:42.557Z,71.697998
2019-03-20T11:35:05.151Z,70.88623
2019-03-20T11:40:27.822Z,71.765137
2019-03-20T11:45:50.453Z,71.258545
2019-03-20T11:51:14.102Z,72.30835
2019-03-20T11:56:36.972Z,70.849609
2019-03-20T12:01:59.608Z,71.258545
2019-03-20T12:07:22.289Z,71.630859
2019-03-20T12:12:45.011Z,70.715332
2019-03-20T12:18:09.187Z,71.801758
2019-03-20T12:23:33.726Z,72.381592
2019-03-20T12:28:54.747Z,71.697998
2019-03-20T12:34:18.419Z,71.087646
2019-03-20T12:39:52.527Z,71.289062
2019-03-20T12:45:05.898Z,70.648193
2019-03-20T12:50:28.813Z,72.790527
2019-03-20T12:55:51.419Z,73.33374
2019-03-20T13:01:13.983Z,75.878906
2019-03-20T13:06:36.649Z,73.980713
2019-03-20T13:11:59.281Z,75.201416
2019-03-20T13:17:21.927Z,76.5625
2019-03-20T13:22:44.578Z,80.175781
2019-03-20T13:28:07.344Z,78.198242
2019-03-20T13:33:29.987Z,77.893066
2019-03-20T13:38:52.628Z,78.466797
2019-03-20T13:44:15.926Z,79.35791
2019-03-20T13:49:38.489Z,79.870605
2019-03-20T13:55:01.149Z,79.052734
2019-03-20T14:00:23.726Z,79.907227
2019-03-20T14:05:47.427Z,78.479004
2019-03-20T14:11:10.117Z,78.613281
2019-03-20T14:16:32.891Z,79.125977
2019-03-20T14:21:55.495Z,80.419922
2019-03-20T14:27:18.130Z,80.352783
2019-03-20T14:32:40.817Z,80.828857
2019-03-20T14:38:03.471Z,80.584717
2019-03-20T14:43:26.180Z,80.517578
2019-03-20T14:48:48.889Z,80.621338
2019-03-20T14:54:12.398Z,80.621338
2019-03-20T14:59:35.347Z,81.335449
2019-03-20T15:04:58.249Z,81.298828
2019-03-20T15:10:20.967Z,81.237793
2019-03-20T15:15:43.576Z,82.971191
2019-03-20T15:21:06.217Z,82.15332
2019-03-20T15:26:28.877Z,83.135986
2019-03-20T15:31:51.514Z,81.848145
2019-03-20T15:37:14.118Z,82.25708
2019-03-20T15:42:37.302Z,81.439209
2019-03-20T15:47:59.927Z,82.092285
2019-03-20T15:53:22.552Z,82.702637
2019-03-20T15:58:45.190Z,83.459473
2019-03-20T16:04:07.778Z,83.459473
2019-03-20T16:09:30.421Z,83.355713
2019-03-20T16:14:53.040Z,83.459473
2019-03-20T16:20:15.806Z,83.868408
2019-03-20T16:25:38.449Z,84.686279
2019-03-20T16:31:01.122Z,84.381104
2019-03-20T16:36:23.744Z,84.381104
2019-03-20T16:41:46.499Z,84.521484
2019-03-20T16:47:09.184Z,84.82666
2019-03-20T16:52:31.876Z,85.443115
2019-03-20T16:57:54.504Z,85.137939
2019-03-20T17:03:17.157Z,85.174561
2019-03-20T17:08:39.835Z,85.791016
2019-03-20T17:14:02.411Z,85.992432
2019-03-20T17:19:25.062Z,86.340332
2019-03-20T17:24:47.673Z,86.749268
2019-03-20T17:30:10.394Z,86.853027
2019-03-20T17:35:33.319Z,86.547852
2019-03-20T17:40:56.062Z,86.853027
2019-03-20T17:46:18.704Z,87.713623
2019-03-20T17:51:41.317Z,87.713623
2019-03-20T17:57:03.929Z,88.330078
2019-03-20T18:02:25.912Z,88.635254
2019-03-20T18:07:47.843Z,88.226318
2019-03-20T18:13:10.549Z,88.018799
2019-03-20T18:18:33.195Z,87.921143
2019-03-20T18:23:55.811Z,88.122559
2019-03-20T18:29:18.402Z,88.226318
2019-03-20T18:34:41.810Z,88.427734
2019-03-20T18:40:05.406Z,89.294434
2019-03-20T18:45:28.051Z,89.84375
2019-03-20T18:50:50.660Z,91.485596
2019-03-20T18:56:13.369Z,91.998291
2019-03-20T19:01:37.110Z,92.352295
2019-03-20T19:06:59.832Z,92.657471
2019-03-20T19:12:23.065Z,93.585205
2019-03-20T19:17:49.096Z,93.481445
2019-03-20T19:23:11.685Z,93.377686
2019-03-20T19:28:34.540Z,93.377686
2019-03-20T19:33:57.406Z,94.140625
2019-03-20T19:39:20.108Z,94.854736
2019-03-20T19:44:42.759Z,94.854736
2019-03-20T19:50:05.502Z,95.166016
2019-03-20T19:55:28.370Z,94.958496
2019-03-20T20:00:51.344Z,95.269775
2019-03-20T20:06:14.304Z,95.062256
2019-03-20T20:11:37.020Z,95.062256
2019-03-20T20:16:59.815Z,94.958496
2019-03-20T20:22:22.468Z,94.958496
2019-03-20T20:27:45.227Z,94.65332
2019-03-20T20:33:07.863Z,94.958496
2019-03-20T20:38:30.459Z,94.445801
2019-03-20T20:43:54.114Z,93.933105
2019-03-20T20:49:16.732Z,93.066406
2019-03-20T20:54:40.268Z,93.170166
2019-03-20T21:00:03.170Z,93.066406
2019-03-20T21:05:25.989Z,93.170166
2019-03-20T21:10:48.994Z,92.205811
2019-03-20T21:16:11.794Z,91.900635
2019-03-20T21:21:34.579Z,92.205811
2019-03-20T21:26:57.566Z,92.102051
2019-03-20T21:32:20.515Z,92.614746
2019-03-20T21:37:43.324Z,92.614746
2019-03-20T21:43:07.067Z,93.023682
2019-03-20T21:48:28.908Z,93.377686
2019-03-20T21:53:52.623Z,93.682861
2019-03-20T21:59:15.342Z,94.299316
2019-03-20T22:04:37.952Z,94.812012
2019-03-20T22:10:00.601Z,94.854736
2019-03-20T22:15:23.211Z,95.269775
2019-03-20T22:20:46.027Z,95.782471
2019-03-20T22:26:08.702Z,96.337891
2019-03-20T22:31:31.363Z,96.54541
2019-03-20T22:36:53.957Z,96.54541
2019-03-20T22:42:16.636Z,96.75293
2019-03-20T22:47:39.758Z,96.850586
2019-03-20T22:53:03.421Z,96.954346
2019-03-20T22:58:26.794Z,96.954346
2019-03-20T23:03:49.503Z,97.467041
2019-03-20T23:09:12.111Z,97.467041
2019-03-20T23:14:34.722Z,97.369385
2019-03-20T23:19:57.317Z,97.369385
2019-03-20T23:25:19.923Z,97.77832
2019-03-20T23:30:42.540Z,98.54126
2019-03-20T23:36:05.520Z,98.4375
2019-03-20T23:41:28.123Z,98.33374
2019-03-20T23:46:51.397Z,98.64502
2019-03-20T23:52:14.055Z,98.748779
2019-03-20T23:57:36.685Z,98.64502
